createdAt,value
2019-01-18T00:02:33.552Z,95.50
2019-01-18T00:05:06.200Z,95.40
2019-01-18T00:07:38.403Z,95.70
2019-01-18T00:10:11.751Z,95.30
2019-01-18T00:12:44.051Z,94.90
2019-01-18T00:15:16.708Z,94.70
2019-01-18T00:17:49.012Z,93.90
2019-01-18T00:20:21.368Z,94.70
2019-01-18T00:22:53.637Z,94.80
2019-01-18T00:25:26.000Z,94.90
2019-01-18T00:27:58.399Z,94.90
2019-01-18T00:30:30.764Z,94.50
2019-01-18T00:33:03.066Z,94.70
2019-01-18T00:35:35.222Z,94.30
2019-01-18T00:38:07.727Z,94.60
2019-01-18T00:40:40.089Z,95.00
2019-01-18T00:43:12.397Z,95.10
2019-01-18T00:45:44.643Z,95.10
2019-01-18T00:48:16.850Z,95.00
2019-01-18T00:50:49.109Z,95.10
2019-01-18T00:53:21.535Z,95.00
2019-01-18T00:55:53.780Z,95.20
2019-01-18T00:58:26.286Z,94.80
2019-01-18T01:00:58.696Z,94.50
2019-01-18T01:03:31.095Z,94.50
2019-01-18T01:06:03.632Z,94.40
2019-01-18T01:08:35.940Z,94.70
2019-01-18T01:11:08.296Z,94.00
2019-01-18T01:13:40.501Z,94.30
2019-01-18T01:16:12.868Z,93.80
2019-01-18T01:18:45.173Z,93.70
2019-01-18T01:21:17.432Z,93.50
2019-01-18T01:23:49.849Z,93.90
2019-01-18T01:26:22.314Z,93.70
2019-01-18T01:28:54.701Z,93.80
2019-01-18T01:31:27.055Z,93.70
2019-01-18T01:33:59.470Z,93.50
2019-01-18T01:36:31.724Z,93.70
2019-01-18T01:39:07.238Z,93.70
2019-01-18T01:41:39.679Z,93.40
2019-01-18T01:44:11.987Z,93.20
2019-01-18T01:46:44.423Z,92.90
2019-01-18T01:49:16.634Z,93.20
2019-01-18T01:51:48.797Z,93.00
2019-01-18T01:54:21.258Z,92.90
2019-01-18T01:56:53.760Z,92.70
2019-01-18T01:59:26.118Z,92.90
2019-01-18T02:01:58.379Z,92.70
2019-01-18T02:04:30.680Z,93.10
2019-01-18T02:07:02.941Z,93.10
2019-01-18T02:09:35.353Z,92.80
2019-01-18T02:12:07.790Z,92.80
2019-01-18T02:14:40.091Z,93.00
2019-01-18T02:17:12.352Z,93.00
2019-01-18T02:19:44.758Z,93.00
2019-01-18T02:22:17.016Z,92.80
2019-01-18T02:24:49.220Z,93.20
2019-01-18T02:27:21.477Z,93.40
2019-01-18T02:29:56.797Z,93.40
2019-01-18T02:32:27.856Z,93.40
2019-01-18T02:35:00.142Z,93.40
2019-01-18T02:37:32.309Z,93.50
2019-01-18T02:40:05.440Z,93.40
2019-01-18T02:42:37.779Z,93.50
2019-01-18T02:45:12.517Z,93.50
2019-01-18T02:47:44.884Z,93.50
2019-01-18T02:50:18.748Z,93.30
2019-01-18T02:52:51.226Z,93.40
2019-01-18T02:55:28.869Z,93.30
2019-01-18T02:57:58.055Z,92.90
2019-01-18T03:00:30.408Z,93.10
2019-01-18T03:03:02.745Z,93.20
2019-01-18T03:05:35.244Z,93.40
2019-01-18T03:08:07.713Z,93.30
2019-01-18T03:10:40.108Z,93.20
2019-01-18T03:13:12.386Z,93.10
2019-01-18T03:15:44.591Z,92.90
2019-01-18T03:18:16.957Z,92.70
2019-01-18T03:20:49.267Z,92.70
2019-01-18T03:23:21.437Z,92.80
2019-01-18T03:25:53.854Z,92.50
2019-01-18T03:28:26.111Z,93.00
2019-01-18T03:30:58.413Z,93.00
2019-01-18T03:33:30.677Z,92.60
2019-01-18T03:36:02.988Z,92.60
2019-01-18T03:38:36.164Z,92.30
2019-01-18T03:41:08.585Z,92.20
2019-01-18T03:43:40.841Z,92.00
2019-01-18T03:46:13.043Z,91.50
2019-01-18T03:48:45.409Z,91.70
2019-01-18T03:51:17.616Z,91.80
2019-01-18T03:53:50.069Z,91.80
2019-01-18T03:56:22.274Z,91.70
2019-01-18T03:58:54.532Z,91.30
2019-01-18T04:01:26.930Z,91.60
2019-01-18T04:03:59.188Z,91.30
2019-01-18T04:06:31.699Z,91.30
2019-01-18T04:09:05.758Z,91.60
2019-01-18T04:11:37.966Z,91.10
2019-01-18T04:14:10.325Z,91.10
2019-01-18T04:16:42.620Z,91.00
2019-01-18T04:19:14.787Z,91.20
2019-01-18T04:21:47.083Z,91.00
2019-01-18T04:24:19.351Z,91.20
2019-01-18T04:26:51.551Z,91.50
2019-01-18T04:29:23.709Z,91.60
2019-01-18T04:31:55.915Z,91.20
2019-01-18T04:34:28.192Z,91.40
2019-01-18T04:37:00.482Z,90.90
2019-01-18T04:39:32.747Z,91.10
2019-01-18T04:42:05.279Z,90.80
2019-01-18T04:44:37.626Z,89.60
2019-01-18T04:47:09.898Z,90.20
2019-01-18T04:49:42.098Z,90.00
2019-01-18T04:52:14.457Z,90.00
2019-01-18T04:54:46.797Z,90.00
2019-01-18T04:57:19.220Z,89.70
2019-01-18T04:59:51.472Z,90.30
2019-01-18T05:02:23.783Z,90.20
2019-01-18T05:04:55.990Z,89.80
2019-01-18T05:07:28.195Z,88.50
2019-01-18T05:10:00.468Z,89.30
2019-01-18T05:12:32.687Z,89.30
2019-01-18T05:15:05.470Z,89.60
2019-01-18T05:17:37.765Z,90.20
2019-01-18T05:20:10.701Z,90.70
2019-01-18T05:22:43.348Z,90.60
2019-01-18T05:25:16.146Z,90.30
2019-01-18T05:27:48.736Z,90.40
2019-01-18T05:30:29.739Z,90.10
2019-01-18T05:33:02.209Z,90.70
2019-01-18T05:35:34.583Z,90.60
2019-01-18T05:38:07.091Z,90.40
2019-01-18T05:40:39.516Z,90.20
2019-01-18T05:43:11.958Z,90.50
2019-01-18T05:45:44.608Z,90.30
2019-01-18T05:48:16.977Z,90.10
2019-01-18T05:50:49.304Z,89.50
2019-01-18T05:53:21.981Z,89.80
2019-01-18T05:55:54.288Z,89.60
2019-01-18T05:58:26.501Z,89.60
2019-01-18T06:01:03.339Z,89.40
2019-01-18T06:03:35.648Z,88.60
2019-01-18T06:06:08.448Z,88.70
2019-01-18T06:08:40.650Z,88.30
2019-01-18T06:11:13.059Z,88.90
2019-01-18T06:13:45.271Z,89.30
2019-01-18T06:16:17.765Z,90.10
2019-01-18T06:18:50.069Z,90.50
2019-01-18T06:21:22.277Z,90.20
2019-01-18T06:23:54.483Z,90.60
2019-01-18T06:26:26.987Z,91.00
2019-01-18T06:28:59.192Z,90.80
2019-01-18T06:31:31.401Z,90.90
2019-01-18T06:34:03.715Z,91.40
2019-01-18T06:36:36.123Z,91.40
2019-01-18T06:39:09.960Z,91.10
2019-01-18T06:41:49.227Z,91.20
2019-01-18T06:44:21.769Z,91.60
2019-01-18T06:46:54.766Z,91.80
2019-01-18T06:49:26.971Z,92.00
2019-01-18T06:51:59.180Z,92.40
2019-01-18T06:54:31.436Z,91.90
2019-01-18T06:57:03.635Z,92.10
2019-01-18T06:59:35.846Z,92.40
2019-01-18T07:02:08.356Z,92.40
2019-01-18T07:04:42.341Z,92.20
2019-01-18T07:07:14.848Z,92.10
2019-01-18T07:09:47.057Z,92.20
2019-01-18T07:12:19.460Z,92.30
2019-01-18T07:14:51.874Z,92.50
2019-01-18T07:17:24.187Z,92.00
2019-01-18T07:19:56.598Z,92.40
2019-01-18T07:22:28.802Z,92.40
2019-01-18T07:25:01.024Z,92.20
2019-01-18T07:27:33.242Z,92.20
2019-01-18T07:30:08.201Z,92.50
2019-01-18T07:32:40.402Z,92.50
2019-01-18T07:35:12.926Z,92.40
2019-01-18T07:37:45.477Z,92.20
2019-01-18T07:40:17.982Z,92.20
2019-01-18T07:42:50.389Z,91.90
2019-01-18T07:45:25.914Z,92.00
2019-01-18T07:47:58.418Z,92.00
2019-01-18T07:50:30.830Z,92.20
2019-01-18T07:53:03.241Z,92.30
2019-01-18T07:55:35.747Z,92.00
2019-01-18T07:58:08.246Z,91.60
2019-01-18T08:00:40.659Z,91.70
2019-01-18T08:03:13.073Z,91.60
2019-01-18T08:05:45.558Z,91.60
2019-01-18T08:08:17.859Z,91.10
2019-01-18T08:10:50.071Z,90.70
2019-01-18T08:13:22.368Z,90.20
2019-01-18T08:15:54.791Z,89.40
2019-01-18T08:18:27.095Z,86.10
2019-01-18T08:20:59.405Z,83.90
2019-01-18T08:23:31.802Z,81.40
2019-01-18T08:26:04.317Z,78.90
2019-01-18T08:28:36.828Z,79.20
2019-01-18T08:31:09.144Z,78.20
2019-01-18T08:33:41.456Z,73.40
2019-01-18T08:36:13.983Z,63.70
2019-01-18T08:38:46.392Z,57.30
2019-01-18T08:41:18.802Z,56.40
2019-01-18T08:43:50.997Z,56.90
2019-01-18T08:46:23.626Z,60.30
2019-01-18T08:48:55.929Z,64.80
2019-01-18T08:51:28.442Z,68.70
2019-01-18T08:54:00.841Z,72.20
2019-01-18T08:56:33.188Z,75.80
2019-01-18T08:59:05.695Z,79.10
2019-01-18T09:01:37.913Z,80.20
2019-01-18T09:04:10.330Z,81.90
2019-01-18T09:06:42.643Z,83.50
2019-01-18T09:09:14.949Z,84.20
2019-01-18T09:11:47.357Z,85.10
2019-01-18T09:14:19.685Z,83.80
2019-01-18T09:16:52.095Z,84.60
2019-01-18T09:19:24.569Z,81.20
2019-01-18T09:21:56.810Z,75.70
2019-01-18T09:24:29.238Z,71.40
2019-01-18T09:27:01.588Z,71.90
2019-01-18T09:29:33.796Z,72.40
2019-01-18T09:32:06.515Z,72.40
2019-01-18T09:34:38.819Z,73.80
2019-01-18T09:37:11.436Z,74.60
2019-01-18T09:39:45.390Z,75.70
2019-01-18T09:42:17.629Z,75.80
2019-01-18T09:44:49.962Z,75.60
2019-01-18T09:47:22.479Z,76.50
2019-01-18T09:49:54.682Z,76.90
2019-01-18T09:52:26.979Z,78.20
2019-01-18T09:54:59.179Z,79.30
2019-01-18T09:57:31.630Z,79.00
2019-01-18T10:00:04.107Z,79.40
2019-01-18T10:02:36.421Z,79.50
2019-01-18T10:05:10.106Z,79.20
2019-01-18T10:07:42.513Z,78.00
2019-01-18T10:10:18.075Z,76.90
2019-01-18T10:12:50.893Z,76.50
2019-01-18T10:15:29.785Z,75.00
2019-01-18T10:18:02.170Z,75.00
2019-01-18T10:20:34.675Z,74.70
2019-01-18T10:23:07.481Z,74.30
2019-01-18T10:25:39.997Z,74.80
2019-01-18T10:28:12.415Z,73.20
2019-01-18T10:30:44.828Z,72.60
2019-01-18T10:33:17.232Z,71.20
2019-01-18T10:35:49.738Z,70.30
2019-01-18T10:38:22.207Z,72.20
2019-01-18T10:40:54.435Z,72.60
2019-01-18T10:43:26.650Z,72.60
2019-01-18T10:45:58.861Z,72.50
2019-01-18T10:48:31.172Z,73.10
2019-01-18T10:51:03.586Z,72.30
2019-01-18T10:53:35.993Z,71.50
2019-01-18T10:56:08.347Z,71.50
2019-01-18T10:58:40.749Z,69.60
2019-01-18T11:01:12.951Z,68.10
2019-01-18T11:03:45.264Z,68.70
2019-01-18T11:06:17.575Z,67.80
2019-01-18T11:08:49.992Z,68.10
2019-01-18T11:11:22.194Z,67.30
2019-01-18T11:13:54.404Z,67.40
2019-01-18T11:16:26.714Z,68.20
2019-01-18T11:18:59.022Z,68.80
2019-01-18T11:21:31.325Z,69.60
2019-01-18T11:24:03.813Z,69.30
2019-01-18T11:26:36.118Z,68.90
2019-01-18T11:29:08.429Z,69.40
2019-01-18T11:31:40.738Z,68.80
2019-01-18T11:34:13.042Z,68.20
2019-01-18T11:36:45.517Z,69.20
2019-01-18T11:39:17.801Z,67.60
2019-01-18T11:41:49.959Z,66.70
2019-01-18T11:44:22.159Z,65.70
2019-01-18T11:46:54.419Z,65.60
2019-01-18T11:49:26.731Z,64.90
2019-01-18T11:51:58.996Z,63.90
2019-01-18T11:54:31.350Z,62.10
2019-01-18T11:57:03.554Z,62.50
2019-01-18T11:59:35.764Z,62.20
2019-01-18T12:02:08.223Z,61.50
2019-01-18T12:04:40.536Z,62.00
2019-01-18T12:07:12.805Z,62.70
2019-01-18T12:09:45.123Z,62.80
2019-01-18T12:12:17.489Z,62.00
2019-01-18T12:14:49.697Z,62.50
2019-01-18T12:17:21.856Z,62.70
2019-01-18T12:19:54.151Z,63.90
2019-01-18T12:22:26.611Z,64.80
2019-01-18T12:24:58.812Z,65.50
2019-01-18T12:27:31.088Z,64.80
2019-01-18T12:30:03.971Z,65.20
2019-01-18T12:32:36.334Z,65.60
2019-01-18T12:35:08.915Z,66.50
2019-01-18T12:37:41.427Z,67.70
2019-01-18T12:40:13.935Z,68.00
2019-01-18T12:42:46.251Z,63.10
2019-01-18T12:45:21.258Z,57.00
2019-01-18T12:47:53.668Z,52.70
2019-01-18T12:50:45.836Z,46.60
2019-01-18T12:53:18.364Z,43.20
2019-01-18T12:55:50.881Z,43.20
2019-01-18T12:58:23.302Z,41.10
2019-01-18T13:00:55.674Z,37.70
2019-01-18T13:03:28.202Z,35.10
2019-01-18T13:06:00.877Z,33.60
2019-01-18T13:08:33.496Z,34.00
2019-01-18T13:11:06.065Z,35.40
2019-01-18T13:13:38.386Z,36.30
2019-01-18T13:16:44.797Z,38.80
2019-01-18T13:19:24.018Z,42.20
2019-01-18T13:21:56.531Z,44.60
2019-01-18T13:24:28.977Z,45.30
2019-01-18T13:27:01.424Z,42.50
2019-01-18T13:29:33.740Z,40.60
2019-01-18T13:32:06.312Z,40.40
2019-01-18T13:34:38.698Z,42.60
2019-01-18T13:37:11.107Z,44.30
2019-01-18T13:39:43.272Z,46.50
2019-01-18T13:42:15.687Z,49.40
2019-01-18T13:44:47.852Z,49.90
2019-01-18T13:47:20.259Z,52.00
2019-01-18T13:49:52.566Z,53.10
2019-01-18T13:52:24.871Z,54.40
2019-01-18T13:54:57.238Z,55.90
2019-01-18T13:57:29.540Z,56.80
2019-01-18T14:00:01.716Z,56.10
2019-01-18T14:02:34.120Z,58.60
2019-01-18T14:05:07.439Z,59.10
2019-01-18T14:07:40.148Z,59.60
2019-01-18T14:10:22.619Z,59.00
2019-01-18T14:12:55.139Z,59.00
2019-01-18T14:15:27.681Z,60.10
2019-01-18T14:18:00.174Z,60.40
2019-01-18T14:20:32.444Z,61.00
2019-01-18T14:23:04.843Z,61.30
2019-01-18T14:25:37.307Z,61.80
2019-01-18T14:28:09.811Z,63.10
2019-01-18T14:30:41.983Z,63.80
2019-01-18T14:33:14.487Z,66.40
2019-01-18T14:35:46.755Z,66.30
2019-01-18T14:38:24.937Z,66.00
2019-01-18T14:40:53.018Z,66.00
2019-01-18T14:43:25.337Z,66.60
2019-01-18T14:45:57.515Z,67.60
2019-01-18T14:48:29.725Z,68.80
2019-01-18T14:51:02.332Z,69.40
2019-01-18T14:53:34.688Z,69.20
2019-01-18T14:56:07.320Z,69.40
2019-01-18T14:58:39.621Z,68.70
2019-01-18T15:01:11.983Z,68.50
2019-01-18T15:03:44.568Z,68.00
2019-01-18T15:06:17.028Z,68.00
2019-01-18T15:08:49.334Z,68.90
2019-01-18T15:11:21.587Z,69.20
2019-01-18T15:13:53.992Z,68.80
2019-01-18T15:16:26.147Z,69.20
2019-01-18T15:18:58.557Z,69.30
2019-01-18T15:21:30.884Z,68.40
2019-01-18T15:24:03.289Z,68.80
2019-01-18T15:26:35.547Z,69.40
2019-01-18T15:29:08.063Z,69.90
2019-01-18T15:31:40.570Z,70.00
2019-01-18T15:34:13.020Z,70.30
2019-01-18T15:36:45.415Z,71.10
2019-01-18T15:39:17.639Z,71.10
2019-01-18T15:41:50.032Z,71.00
2019-01-18T15:44:22.245Z,71.30
2019-01-18T15:46:54.550Z,72.00
2019-01-18T15:49:26.854Z,71.80
2019-01-18T15:51:59.252Z,71.80
2019-01-18T15:54:31.567Z,71.70
2019-01-18T15:57:03.818Z,72.30
2019-01-18T15:59:36.026Z,72.70
2019-01-18T16:02:08.531Z,73.90
2019-01-18T16:04:41.036Z,74.70
2019-01-18T16:07:13.327Z,75.50
2019-01-18T16:09:45.550Z,75.50
2019-01-18T16:12:17.762Z,75.60
2019-01-18T16:14:49.975Z,76.10
2019-01-18T16:17:28.484Z,76.60
2019-01-18T16:20:00.792Z,76.50
2019-01-18T16:22:33.203Z,76.40
2019-01-18T16:25:06.985Z,76.70
2019-01-18T16:27:39.403Z,76.70
2019-01-18T16:30:16.137Z,77.20
2019-01-18T16:32:48.589Z,76.70
2019-01-18T16:35:21.554Z,77.00
2019-01-18T16:37:54.339Z,77.60
2019-01-18T16:40:33.147Z,78.90
2019-01-18T16:43:11.269Z,79.40
2019-01-18T16:45:43.777Z,79.70
2019-01-18T16:48:16.235Z,79.80
2019-01-18T16:50:48.886Z,79.60
2019-01-18T16:53:21.638Z,80.60
2019-01-18T16:55:53.991Z,81.20
2019-01-18T16:58:26.193Z,81.80
2019-01-18T17:01:00.683Z,81.70
2019-01-18T17:03:32.987Z,81.70
2019-01-18T17:06:06.875Z,81.90
2019-01-18T17:08:39.294Z,82.40
2019-01-18T17:11:11.703Z,83.80
2019-01-18T17:13:44.538Z,83.20
2019-01-18T17:16:17.048Z,83.70
2019-01-18T17:18:49.444Z,83.10
2019-01-18T17:21:21.883Z,82.70
2019-01-18T17:23:54.292Z,83.00
2019-01-18T17:26:26.710Z,83.30
2019-01-18T17:28:59.026Z,83.30
2019-01-18T17:31:31.254Z,83.90
2019-01-18T17:34:03.564Z,83.60
2019-01-18T17:37:13.558Z,84.00
2019-01-18T17:40:19.220Z,82.90
2019-01-18T17:43:21.631Z,82.80
2019-01-18T17:46:37.903Z,83.70
2019-01-18T17:50:16.317Z,84.20
2019-01-18T17:53:52.534Z,84.40
2019-01-18T17:57:08.216Z,85.00
2019-01-18T18:00:52.810Z,85.90
2019-01-18T18:04:15.454Z,86.10
2019-01-18T18:07:31.657Z,86.50
2019-01-18T18:10:42.576Z,87.20
2019-01-18T18:14:19.004Z,87.50
2019-01-18T18:17:56.956Z,86.30
2019-01-18T18:21:15.979Z,86.80
2019-01-18T18:24:13.911Z,88.00
2019-01-18T18:27:59.747Z,88.60
2019-01-18T18:31:40.308Z,88.20
2019-01-18T18:35:21.633Z,88.90
2019-01-18T18:39:07.917Z,89.40
2019-01-18T18:42:29.630Z,89.70
2019-01-18T18:46:07.154Z,88.20
2019-01-18T18:49:57.380Z,87.50
2019-01-18T18:53:48.571Z,87.30
2019-01-18T18:57:06.529Z,86.60
2019-01-18T19:00:37.861Z,87.40
2019-01-18T19:04:07.509Z,88.30
2019-01-18T19:07:49.285Z,89.10
2019-01-18T19:11:26.146Z,89.60
2019-01-18T19:14:35.040Z,89.30
2019-01-18T19:17:41.293Z,89.20
2019-01-18T19:21:30.061Z,89.60
2019-01-18T19:24:55.970Z,89.30
2019-01-18T19:28:27.251Z,89.20
2019-01-18T19:31:59.420Z,89.00
2019-01-18T19:35:19.398Z,88.80
2019-01-18T19:38:37.322Z,89.50
2019-01-18T19:41:43.074Z,89.50
2019-01-18T19:44:44.810Z,90.30
2019-01-18T19:47:37.540Z,90.10
2019-01-18T19:51:06.367Z,90.20
2019-01-18T19:54:54.932Z,89.70
2019-01-18T19:58:24.213Z,89.70
2019-01-18T20:01:34.063Z,89.20
2019-01-18T20:04:46.463Z,89.60
2019-01-18T20:08:04.184Z,89.70
2019-01-18T20:11:39.400Z,90.10
2019-01-18T20:14:46.283Z,90.40
2019-01-18T20:18:06.010Z,90.20
2019-01-18T20:21:33.517Z,90.30
2019-01-18T20:25:05.340Z,90.60
2019-01-18T20:28:39.395Z,90.50
2019-01-18T20:31:54.859Z,90.30
2019-01-18T20:35:08.259Z,90.10
2019-01-18T20:38:05.841Z,90.40
2019-01-18T20:41:42.388Z,90.90
2019-01-18T20:45:10.124Z,91.00
2019-01-18T20:48:36.773Z,91.20
2019-01-18T20:52:02.430Z,91.30
2019-01-18T20:55:03.804Z,91.30
2019-01-18T20:58:56.368Z,91.30
2019-01-18T21:02:23.006Z,91.10
2019-01-18T21:06:00.815Z,91.00
2019-01-18T21:09:28.436Z,91.00
2019-01-18T21:12:47.330Z,91.10
2019-01-18T21:15:45.794Z,91.20
2019-01-18T21:18:56.365Z,91.20
2019-01-18T21:22:28.223Z,91.90
2019-01-18T21:26:00.875Z,92.40
2019-01-18T21:30:02.823Z,92.00
2019-01-18T21:33:53.175Z,91.50
2019-01-18T21:37:35.887Z,91.70
2019-01-18T21:41:21.299Z,92.20
2019-01-18T21:44:48.835Z,92.40
2019-01-18T21:48:07.929Z,91.40
2019-01-18T21:51:25.498Z,90.40
2019-01-18T21:54:39.554Z,91.10
2019-01-18T21:58:19.668Z,91.40
2019-01-18T22:01:30.246Z,91.40
2019-01-18T22:04:51.115Z,91.70
2019-01-18T22:08:20.571Z,91.90
2019-01-18T22:11:26.653Z,91.90
2019-01-18T22:14:46.366Z,91.80
2019-01-18T22:18:07.843Z,91.50
2019-01-18T22:21:41.820Z,91.60
2019-01-18T22:25:21.064Z,92.00
2019-01-18T22:28:21.365Z,92.10
2019-01-18T22:31:41.438Z,92.60
2019-01-18T22:34:57.755Z,92.50
2019-01-18T22:38:11.844Z,92.60
2019-01-18T22:41:40.928Z,92.50
2019-01-18T22:45:17.011Z,92.10
2019-01-18T22:48:30.161Z,91.90
2019-01-18T22:51:47.171Z,90.70
2019-01-18T22:55:14.079Z,89.70
2019-01-18T22:58:31.842Z,89.60
2019-01-18T23:01:48.409Z,90.00
2019-01-18T23:05:09.767Z,90.10
2019-01-18T23:08:53.086Z,90.40
2019-01-18T23:11:50.213Z,90.50
2019-01-18T23:15:41.307Z,90.30
2019-01-18T23:18:52.327Z,90.00
2019-01-18T23:22:10.554Z,89.40
2019-01-18T23:25:24.911Z,89.60
2019-01-18T23:28:47.900Z,89.00
2019-01-18T23:32:05.655Z,87.70
2019-01-18T23:35:18.830Z,84.30
2019-01-18T23:38:36.925Z,84.10
2019-01-18T23:41:37.760Z,84.60
2019-01-18T23:45:03.638Z,84.70
2019-01-18T23:48:26.891Z,85.00
2019-01-18T23:51:36.429Z,85.10
2019-01-18T23:55:03.460Z,86.00
2019-01-18T23:58:18.984Z,85.70
